createdAt,value
2022-09-28T00:01:56.828Z,99379.36
2022-09-28T00:04:25.855Z,99376.74
2022-09-28T00:06:54.489Z,99376.17
2022-09-28T00:09:23.103Z,99381.17
2022-09-28T00:11:52.830Z,99381.40
2022-09-28T00:14:22.038Z,99382.37
2022-09-28T00:16:50.915Z,99386.12
2022-09-28T00:19:19.742Z,99382.88
2022-09-28T00:21:48.384Z,99380.57
2022-09-28T00:24:17.425Z,99383.70
2022-09-28T00:26:57.338Z,99376.30
2022-09-28T00:29:34.898Z,99364.68
2022-09-28T00:32:12.405Z,99361.48
2022-09-28T00:34:46.138Z,99355.42
2022-09-28T00:37:15.807Z,99355.32
2022-09-28T00:39:44.604Z,99354.64
2022-09-28T00:42:24.300Z,99355.65
2022-09-28T00:44:54.906Z,99355.61
2022-09-28T00:47:54.045Z,99358.05
2022-09-28T00:50:33.629Z,99358.80
2022-09-28T00:53:22.165Z,99356.02
2022-09-28T00:55:59.836Z,99352.65
2022-09-28T00:58:36.882Z,99348.36
2022-09-28T01:01:06.150Z,99341.48
2022-09-28T01:03:35.408Z,99340.84
2022-09-28T01:06:07.025Z,99339.84
2022-09-28T01:08:37.672Z,99336.55
2022-09-28T01:11:06.431Z,99343.73
2022-09-28T01:13:35.675Z,99344.72
2022-09-28T01:16:43.822Z,99344.58
2022-09-28T01:20:06.227Z,99336.45
2022-09-28T01:23:22.022Z,99333.21
2022-09-28T01:26:25.290Z,99336.23
2022-09-28T01:29:02.446Z,99336.46
2022-09-28T01:31:35.896Z,99342.09
2022-09-28T01:34:15.284Z,99335.79
2022-09-28T01:36:51.162Z,99335.41
2022-09-28T01:39:36.562Z,99334.02
2022-09-28T01:42:14.876Z,99331.15
2022-09-28T01:44:47.912Z,99325.60
2022-09-28T01:47:21.939Z,99325.90
2022-09-28T01:50:07.499Z,99324.45
2022-09-28T01:52:59.863Z,99323.33
2022-09-28T01:55:44.371Z,99322.65
2022-09-28T01:58:22.359Z,99326.31
2022-09-28T02:01:01.187Z,99325.95
2022-09-28T02:04:16.285Z,99331.94
2022-09-28T02:06:56.857Z,99336.05
2022-09-28T02:09:47.681Z,99333.55
2022-09-28T02:12:31.790Z,99330.54
2022-09-28T02:15:16.652Z,99331.59
2022-09-28T02:17:47.283Z,99335.20
2022-09-28T02:20:18.114Z,99337.08
2022-09-28T02:22:52.695Z,99334.20
2022-09-28T02:25:43.346Z,99337.77
2022-09-28T02:28:13.932Z,99344.17
2022-09-28T02:30:44.949Z,99348.29
2022-09-28T02:33:35.406Z,99353.58
2022-09-28T02:36:05.154Z,99362.23
2022-09-28T02:38:39.089Z,99362.33
2022-09-28T02:41:36.931Z,99364.29
2022-09-28T02:44:36.460Z,99367.11
2022-09-28T02:48:04.250Z,99365.83
2022-09-28T02:51:07.196Z,99376.18
2022-09-28T02:54:13.410Z,99381.36
2022-09-28T02:57:16.389Z,99388.41
2022-09-28T03:00:13.161Z,99385.95
2022-09-28T03:03:30.802Z,99381.21
2022-09-28T03:06:02.524Z,99376.85
2022-09-28T03:09:26.081Z,99378.42
2022-09-28T03:12:01.308Z,99372.39
2022-09-28T03:14:30.091Z,99372.90
2022-09-28T03:16:59.204Z,99378.23
2022-09-28T03:19:34.953Z,99369.79
2022-09-28T03:22:03.690Z,99365.98
2022-09-28T03:24:32.374Z,99366.17
2022-09-28T03:27:01.032Z,99366.39
2022-09-28T03:29:31.723Z,99372.94
2022-09-28T03:32:02.378Z,99374.98
2022-09-28T03:34:31.034Z,99381.83
2022-09-28T03:36:59.716Z,99385.91
2022-09-28T03:39:28.643Z,99391.56
2022-09-28T03:41:57.438Z,99388.04
2022-09-28T03:44:26.169Z,99384.27
2022-09-28T03:46:54.928Z,99384.94
2022-09-28T03:49:23.647Z,99387.17
2022-09-28T03:51:52.345Z,99382.02
2022-09-28T03:54:20.981Z,99381.66
2022-09-28T03:56:50.437Z,99386.29
2022-09-28T03:59:19.764Z,99383.56
2022-09-28T04:01:52.948Z,99380.01
2022-09-28T04:04:21.585Z,99386.02
2022-09-28T04:06:50.185Z,99385.48
2022-09-28T04:09:18.944Z,99389.05
2022-09-28T04:12:03.224Z,99390.02
2022-09-28T04:14:32.630Z,99392.30
2022-09-28T04:17:02.047Z,99390.83
2022-09-28T04:19:33.527Z,99390.08
2022-09-28T04:22:51.707Z,99393.54
2022-09-28T04:25:20.502Z,99397.20
2022-09-28T04:28:08.398Z,99400.61
2022-09-28T04:30:38.192Z,99405.86
2022-09-28T04:33:07.061Z,99406.95
2022-09-28T04:35:35.723Z,99410.69
2022-09-28T04:38:04.451Z,99413.88
2022-09-28T04:40:35.389Z,99412.63
2022-09-28T04:43:08.678Z,99408.70
2022-09-28T04:45:37.835Z,99408.34
2022-09-28T04:48:10.249Z,99410.83
2022-09-28T04:51:00.644Z,99412.71
2022-09-28T04:53:30.894Z,99406.14
2022-09-28T04:56:07.291Z,99409.31
2022-09-28T04:58:36.819Z,99407.19
2022-09-28T05:01:13.728Z,99408.66
2022-09-28T05:03:57.128Z,99416.55
2022-09-28T05:06:37.450Z,99425.19
2022-09-28T05:09:09.731Z,99429.47
2022-09-28T05:11:38.372Z,99427.52
2022-09-28T05:14:12.961Z,99421.36
2022-09-28T05:16:42.151Z,99421.73
2022-09-28T05:19:36.511Z,99427.94
2022-09-28T05:22:07.524Z,99428.45
2022-09-28T05:24:43.088Z,99427.09
2022-09-28T05:27:11.706Z,99431.21
2022-09-28T05:29:40.481Z,99425.95
2022-09-28T05:33:03.519Z,99421.92
2022-09-28T05:35:43.377Z,99421.71
2022-09-28T05:38:12.075Z,99423.16
2022-09-28T05:40:40.919Z,99427.11
2022-09-28T05:43:09.746Z,99426.76
2022-09-28T05:45:38.517Z,99431.50
2022-09-28T05:48:07.274Z,99432.89
2022-09-28T05:50:36.077Z,99435.04
2022-09-28T05:53:09.867Z,99434.02
2022-09-28T05:55:40.139Z,99438.70
2022-09-28T05:58:08.915Z,99445.36
2022-09-28T06:00:37.548Z,99446.77
2022-09-28T06:03:14.556Z,99451.17
2022-09-28T06:05:43.204Z,99457.84
2022-09-28T06:08:11.907Z,99460.66
2022-09-28T06:10:45.057Z,99462.69
2022-09-28T06:13:13.829Z,99461.02
2022-09-28T06:15:46.476Z,99467.06
2022-09-28T06:18:15.973Z,99455.59
2022-09-28T06:21:34.329Z,99449.52
2022-09-28T06:24:04.938Z,99452.45
2022-09-28T06:26:33.679Z,99443.23
2022-09-28T06:29:03.823Z,99442.89
2022-09-28T06:31:32.868Z,99441.54
2022-09-28T06:34:02.139Z,99440.89
2022-09-28T06:36:33.982Z,99452.27
2022-09-28T06:39:04.010Z,99452.67
2022-09-28T06:41:33.326Z,99451.93
2022-09-28T06:44:09.048Z,99448.66
2022-09-28T06:46:56.809Z,99445.52
2022-09-28T06:50:45.779Z,99448.92
2022-09-28T06:53:29.529Z,99447.29
2022-09-28T06:56:02.712Z,99444.02
2022-09-28T06:58:32.546Z,99444.31
2022-09-28T07:01:02.631Z,99445.63
2022-09-28T07:03:37.950Z,99447.45
2022-09-28T07:06:26.922Z,99452.46
2022-09-28T07:09:52.321Z,99450.58
2022-09-28T07:13:05.867Z,99452.30
2022-09-28T07:15:45.968Z,99459.41
2022-09-28T07:18:18.188Z,99462.92
2022-09-28T07:20:53.495Z,99466.75
2022-09-28T07:23:24.470Z,99473.23
2022-09-28T07:26:46.415Z,99474.25
2022-09-28T07:29:29.587Z,99470.70
2022-09-28T07:32:03.567Z,99473.02
2022-09-28T07:34:52.489Z,99482.05
2022-09-28T07:37:39.076Z,99482.65
2022-09-28T07:40:28.072Z,99476.05
2022-09-28T07:42:57.154Z,99471.89
2022-09-28T07:45:25.805Z,99472.20
2022-09-28T07:47:57.549Z,99470.05
2022-09-28T07:50:55.311Z,99472.55
2022-09-28T07:53:48.359Z,99479.98
2022-09-28T07:56:35.277Z,99480.59
2022-09-28T07:59:09.681Z,99485.15
2022-09-28T08:01:41.142Z,99488.47
2022-09-28T08:04:12.665Z,99480.71
2022-09-28T08:06:44.387Z,99475.13
2022-09-28T08:09:14.595Z,99482.32
2022-09-28T08:12:04.403Z,99480.11
2022-09-28T08:15:25.807Z,99484.83
2022-09-28T08:18:02.030Z,99491.66
2022-09-28T08:20:51.944Z,99489.98
2022-09-28T08:23:21.015Z,99499.94
2022-09-28T08:25:54.266Z,99508.91
2022-09-28T08:28:25.164Z,99516.28
2022-09-28T08:31:01.991Z,99518.67
2022-09-28T08:33:35.239Z,99523.74
2022-09-28T08:36:51.131Z,99528.30
2022-09-28T08:40:25.505Z,99526.14
2022-09-28T08:44:25.184Z,99529.41
2022-09-28T08:47:30.370Z,99530.71
2022-09-28T08:50:24.489Z,99531.74
2022-09-28T08:54:33.041Z,99528.72
2022-09-28T08:57:46.325Z,99525.34
2022-09-28T09:00:23.192Z,99520.54
2022-09-28T09:02:52.284Z,99524.88
2022-09-28T09:05:39.365Z,99526.44
2022-09-28T09:08:21.666Z,99529.25
2022-09-28T09:11:44.630Z,99526.59
2022-09-28T09:15:03.469Z,99522.52
2022-09-28T09:18:00.544Z,99517.14
2022-09-28T09:20:59.674Z,99517.79
2022-09-28T09:24:04.492Z,99522.94
2022-09-28T09:26:39.828Z,99524.88
2022-09-28T09:29:30.163Z,99519.95
2022-09-28T09:32:12.638Z,99513.95
2022-09-28T09:35:07.928Z,99514.59
2022-09-28T09:38:19.880Z,99510.30
2022-09-28T09:41:24.869Z,99510.03
2022-09-28T09:45:04.908Z,99506.30
2022-09-28T09:48:10.414Z,99513.00
2022-09-28T09:51:20.107Z,99511.55
2022-09-28T09:54:02.685Z,99514.02
2022-09-28T09:56:45.256Z,99510.01
2022-09-28T09:59:57.503Z,99504.15
2022-09-28T10:02:48.708Z,99510.21
2022-09-28T10:05:32.839Z,99511.16
2022-09-28T10:08:24.089Z,99514.42
2022-09-28T10:11:34.407Z,99514.11
2022-09-28T10:14:08.531Z,99509.40
2022-09-28T10:16:48.361Z,99509.17
2022-09-28T10:19:35.913Z,99514.74
2022-09-28T10:22:28.085Z,99518.28
2022-09-28T10:25:00.620Z,99520.64
2022-09-28T10:27:39.980Z,99519.92
2022-09-28T10:30:08.768Z,99520.94
2022-09-28T10:32:45.728Z,99522.16
2022-09-28T10:35:27.562Z,99518.56
2022-09-28T10:38:17.971Z,99517.38
2022-09-28T10:41:27.467Z,99519.06
2022-09-28T10:44:06.685Z,99516.95
2022-09-28T10:47:32.890Z,99511.02
2022-09-28T10:50:01.771Z,99506.55
2022-09-28T10:52:33.867Z,99502.23
2022-09-28T10:55:24.581Z,99511.02
2022-09-28T10:57:54.885Z,99504.24
2022-09-28T11:00:38.963Z,99503.27
2022-09-28T11:03:26.149Z,99495.77
2022-09-28T11:06:08.293Z,99496.90
2022-09-28T11:08:42.130Z,99500.18
2022-09-28T11:11:21.852Z,99496.13
2022-09-28T11:14:04.032Z,99496.88
2022-09-28T11:16:36.821Z,99505.27
2022-09-28T11:19:28.553Z,99506.70
2022-09-28T11:21:57.278Z,99498.77
2022-09-28T11:24:34.270Z,99502.52
2022-09-28T11:27:04.493Z,99499.88
2022-09-28T11:29:46.439Z,99500.55
2022-09-28T11:33:41.455Z,99498.98
2022-09-28T11:37:03.322Z,99497.23
2022-09-28T11:40:07.821Z,99497.61
2022-09-28T11:43:12.328Z,99496.70
2022-09-28T11:45:55.637Z,99500.70
2022-09-28T11:48:47.869Z,99503.06
2022-09-28T11:51:41.430Z,99504.55
2022-09-28T11:54:29.122Z,99507.38
2022-09-28T11:57:01.784Z,99510.77
2022-09-28T11:59:53.807Z,99517.47
2022-09-28T12:02:47.030Z,99523.94
2022-09-28T12:05:42.382Z,99523.80
2022-09-28T12:08:29.191Z,99522.45
2022-09-28T12:11:32.707Z,99522.79
2022-09-28T12:14:27.670Z,99520.70
2022-09-28T12:17:45.797Z,99521.01
2022-09-28T12:20:29.456Z,99520.23
2022-09-28T12:23:27.085Z,99523.67
2022-09-28T12:26:04.895Z,99522.66
2022-09-28T12:28:48.771Z,99520.14
2022-09-28T12:31:40.277Z,99523.02
2022-09-28T12:34:10.296Z,99527.84
2022-09-28T12:37:10.329Z,99535.55
2022-09-28T12:40:03.190Z,99532.84
2022-09-28T12:43:07.039Z,99538.21
2022-09-28T12:46:18.268Z,99536.35
2022-09-28T12:49:36.776Z,99537.77
2022-09-28T12:51:57.821Z,99534.91
2022-09-28T12:54:57.283Z,99534.75
2022-09-28T12:57:50.164Z,99540.34
2022-09-28T13:00:25.384Z,99543.39
2022-09-28T13:03:31.989Z,99548.83
2022-09-28T13:06:37.364Z,99546.34
2022-09-28T13:09:22.859Z,99542.08
2022-09-28T13:11:55.953Z,99545.09
2022-09-28T13:14:46.250Z,99555.85
2022-09-28T13:17:45.341Z,99563.77
2022-09-28T13:20:22.652Z,99570.79
2022-09-28T13:23:27.865Z,99578.31
2022-09-28T13:26:05.559Z,99577.48
2022-09-28T13:28:40.666Z,99590.44
2022-09-28T13:31:20.096Z,99597.39
2022-09-28T13:33:53.437Z,99596.94
2022-09-28T13:36:29.459Z,99601.46
2022-09-28T13:39:01.103Z,99601.41
2022-09-28T13:41:42.504Z,99602.20
2022-09-28T13:44:16.857Z,99603.63
2022-09-28T13:47:10.774Z,99606.63
2022-09-28T13:49:53.306Z,99613.73
2022-09-28T13:53:04.848Z,99615.83
2022-09-28T13:55:56.450Z,99617.35
2022-09-28T13:58:37.394Z,99621.17
2022-09-28T14:01:23.953Z,99623.64
2022-09-28T14:04:12.190Z,99626.02
2022-09-28T14:07:30.983Z,99627.46
2022-09-28T14:10:26.120Z,99631.63
2022-09-28T14:12:55.091Z,99634.65
2022-09-28T14:15:29.823Z,99637.57
2022-09-28T14:18:16.605Z,99640.20
2022-09-28T14:21:39.746Z,99645.20
2022-09-28T14:24:31.592Z,99649.86
2022-09-28T14:27:47.495Z,99648.16
2022-09-28T14:30:22.984Z,99649.42
2022-09-28T14:32:59.589Z,99646.85
2022-09-28T14:35:52.715Z,99643.91
2022-09-28T14:38:44.740Z,99651.86
2022-09-28T14:41:17.844Z,99650.26
2022-09-28T14:43:46.435Z,99652.98
2022-09-28T14:46:15.118Z,99651.40
2022-09-28T14:49:02.011Z,99654.92
2022-09-28T14:51:30.808Z,99657.33
2022-09-28T14:54:08.360Z,99664.13
2022-09-28T14:56:54.605Z,99666.91
2022-09-28T14:59:36.343Z,99671.73
2022-09-28T15:02:15.628Z,99675.66
2022-09-28T15:04:56.565Z,99686.74
2022-09-28T15:07:43.705Z,99686.90
2022-09-28T15:10:39.413Z,99691.86
2022-09-28T15:13:31.249Z,99699.42
2022-09-28T15:16:14.126Z,99704.02
2022-09-28T15:19:03.272Z,99710.16
2022-09-28T15:21:38.264Z,99712.56
2022-09-28T15:24:28.102Z,99715.59
2022-09-28T15:26:57.000Z,99720.38
2022-09-28T15:29:31.637Z,99721.33
2022-09-28T15:32:00.516Z,99724.01
2022-09-28T15:34:51.878Z,99723.20
2022-09-28T15:37:34.389Z,99736.41
2022-09-28T15:40:04.757Z,99739.48
2022-09-28T15:42:37.276Z,99744.71
2022-09-28T15:45:27.816Z,99748.81
2022-09-28T15:48:26.628Z,99751.59
2022-09-28T15:51:12.274Z,99750.04
2022-09-28T15:54:09.557Z,99756.89
2022-09-28T15:56:59.834Z,99763.83
2022-09-28T15:59:39.912Z,99763.46
2022-09-28T16:02:25.932Z,99768.65
2022-09-28T16:04:59.098Z,99776.48
2022-09-28T16:07:38.625Z,99782.30
2022-09-28T16:10:13.720Z,99786.17
2022-09-28T16:12:46.772Z,99791.61
2022-09-28T16:15:38.410Z,99789.59
2022-09-28T16:18:13.144Z,99787.30
2022-09-28T16:20:42.947Z,99784.20
2022-09-28T16:23:17.831Z,99785.23
2022-09-28T16:26:17.377Z,99787.56
2022-09-28T16:28:49.143Z,99787.79
2022-09-28T16:31:41.804Z,99790.33
2022-09-28T16:34:24.276Z,99796.42
2022-09-28T16:40:55.067Z,99800.05
2022-09-28T16:43:32.708Z,99805.03
2022-09-28T16:46:13.537Z,99809.55
2022-09-28T16:48:48.841Z,99816.60
2022-09-28T16:51:22.728Z,99821.98
2022-09-28T16:54:09.536Z,99824.11
2022-09-28T16:56:39.056Z,99830.75
2022-09-28T16:59:13.661Z,99829.43
2022-09-28T17:01:44.132Z,99832.39
2022-09-28T17:04:12.906Z,99837.72
2022-09-28T17:06:43.754Z,99838.96
2022-09-28T17:09:13.292Z,99840.39
2022-09-28T17:11:44.849Z,99840.83
2022-09-28T17:14:14.357Z,99843.86
2022-09-28T17:17:06.776Z,99850.19
2022-09-28T17:19:32.232Z,99854.05
2022-09-28T17:22:01.009Z,99858.30
2022-09-28T17:24:29.730Z,99864.05
2022-09-28T17:27:03.493Z,99866.64
2022-09-28T17:29:32.993Z,99875.45
2022-09-28T17:32:17.232Z,99878.86
2022-09-28T17:34:55.859Z,99883.20
2022-09-28T17:37:29.975Z,99888.46
2022-09-28T17:39:58.598Z,99892.07
2022-09-28T17:42:27.421Z,99894.33
2022-09-28T17:44:56.082Z,99895.11
2022-09-28T17:47:24.905Z,99898.22
2022-09-28T17:49:54.026Z,99896.13
2022-09-28T17:52:22.661Z,99897.84
2022-09-28T17:54:51.333Z,99904.36
2022-09-28T17:57:20.113Z,99910.31
2022-09-28T17:59:48.722Z,99909.70
2022-09-28T18:02:17.350Z,99908.83
2022-09-28T18:04:52.280Z,99912.56
2022-09-28T18:07:21.309Z,99915.66
2022-09-28T18:09:56.929Z,99914.31
2022-09-28T18:12:26.040Z,99917.45
2022-09-28T18:14:54.797Z,99910.75
2022-09-28T18:17:23.664Z,99911.15
2022-09-28T18:19:52.487Z,99909.94
2022-09-28T18:22:21.243Z,99912.67
2022-09-28T18:24:50.027Z,99912.80
2022-09-28T18:27:18.856Z,99914.80
2022-09-28T18:29:47.625Z,99916.92
2022-09-28T18:32:16.578Z,99917.77
2022-09-28T18:34:45.449Z,99920.85
2022-09-28T18:37:14.428Z,99919.63
2022-09-28T18:39:43.194Z,99920.32
2022-09-28T18:42:13.548Z,99921.29
2022-09-28T18:44:42.316Z,99924.49
2022-09-28T18:47:13.791Z,99924.00
2022-09-28T18:49:46.460Z,99920.20
2022-09-28T18:52:21.011Z,99923.02
2022-09-28T18:54:50.958Z,99929.94
2022-09-28T18:57:19.928Z,99932.19
2022-09-28T18:59:48.937Z,99934.58
2022-09-28T19:02:17.629Z,99930.24
2022-09-28T19:04:46.429Z,99907.95
2022-09-28T19:07:52.421Z,99930.14
2022-09-28T19:10:21.182Z,99934.25
2022-09-28T19:13:00.051Z,99935.20
2022-09-28T19:16:13.159Z,99937.48
2022-09-28T19:18:39.941Z,99938.77
2022-09-28T19:21:11.562Z,99941.36
2022-09-28T19:23:49.775Z,99945.59
2022-09-28T19:26:22.660Z,99947.24
2022-09-28T19:28:51.785Z,99951.80
2022-09-28T19:31:21.996Z,99955.89
2022-09-28T19:33:50.757Z,99962.30
2022-09-28T19:36:24.244Z,99958.95
2022-09-28T19:38:53.842Z,99959.29
2022-09-28T19:41:44.362Z,99961.77
2022-09-28T19:44:25.561Z,99957.52
2022-09-28T19:46:56.377Z,99961.55
2022-09-28T19:49:30.565Z,99963.95
2022-09-28T19:53:07.362Z,99973.16
2022-09-28T19:56:05.050Z,99973.23
2022-09-28T19:59:34.992Z,99974.49
2022-09-28T20:02:05.185Z,99971.04
2022-09-28T20:04:37.168Z,99965.48
2022-09-28T20:07:08.253Z,99956.27
2022-09-28T20:09:37.000Z,99951.86
2022-09-28T20:12:05.871Z,99951.55
2022-09-28T20:14:39.451Z,99965.46
2022-09-28T20:17:10.015Z,99974.80
2022-09-28T20:19:38.678Z,99968.29
2022-09-28T20:22:07.368Z,99967.98
2022-09-28T20:24:36.329Z,99968.35
2022-09-28T20:27:04.970Z,99969.52
2022-09-28T20:29:33.821Z,99971.76
2022-09-28T20:32:04.362Z,99970.41
2022-09-28T20:34:34.271Z,99973.39
2022-09-28T20:37:02.917Z,99974.68
2022-09-28T20:39:32.060Z,99981.97
2022-09-28T20:42:01.072Z,99987.50
2022-09-28T20:44:29.710Z,99984.70
2022-09-28T20:46:58.306Z,99980.54
2022-09-28T20:49:28.448Z,99977.80
2022-09-28T20:51:57.022Z,99971.77
2022-09-28T20:54:25.889Z,99970.25
2022-09-28T20:56:54.541Z,99972.23
2022-09-28T20:59:26.613Z,99972.16
2022-09-28T21:01:55.308Z,99966.73
2022-09-28T21:04:24.551Z,99969.91
2022-09-28T21:06:53.328Z,99975.62
2022-09-28T21:09:21.900Z,99977.33
2022-09-28T21:11:50.573Z,99984.85
2022-09-28T21:14:19.297Z,99983.55
2022-09-28T21:16:48.126Z,99978.70
2022-09-28T21:19:16.777Z,99978.15
2022-09-28T21:21:45.454Z,99975.36
2022-09-28T21:24:14.310Z,99980.56
2022-09-28T21:26:42.976Z,99988.18
2022-09-28T21:29:14.970Z,99984.71
2022-09-28T21:31:45.995Z,99984.20
2022-09-28T21:34:20.520Z,99987.89
2022-09-28T21:36:53.422Z,99989.70
2022-09-28T21:39:22.413Z,99991.89
2022-09-28T21:41:51.100Z,99987.99
2022-09-28T21:44:19.807Z,99990.95
2022-09-28T21:46:48.537Z,99993.88
2022-09-28T21:49:17.220Z,100002.77
2022-09-28T21:51:47.316Z,100006.67
2022-09-28T21:54:16.134Z,100009.36
2022-09-28T21:56:44.915Z,100008.72
2022-09-28T21:59:13.547Z,100009.66
2022-09-28T22:01:42.979Z,100020.55
2022-09-28T22:04:11.673Z,100021.71
2022-09-28T22:06:40.247Z,100023.92
2022-09-28T22:09:09.082Z,100024.49
2022-09-28T22:11:37.689Z,100024.69
2022-09-28T22:14:06.405Z,100022.89
2022-09-28T22:16:35.057Z,100025.59
2022-09-28T22:19:03.730Z,100027.77
2022-09-28T22:21:35.118Z,100029.23
2022-09-28T22:24:07.466Z,100034.23
2022-09-28T22:26:38.260Z,100029.05
2022-09-28T22:29:09.724Z,100025.02
2022-09-28T22:31:40.846Z,100022.83
2022-09-28T22:34:10.320Z,100026.44
2022-09-28T22:36:39.046Z,100030.60
2022-09-28T22:39:07.676Z,100028.55
2022-09-28T22:41:36.284Z,100025.42
2022-09-28T22:44:05.065Z,100028.66
2022-09-28T22:46:35.805Z,100031.86
2022-09-28T22:49:05.554Z,100033.33
2022-09-28T22:51:34.633Z,100039.68
2022-09-28T22:54:03.382Z,100041.00
2022-09-28T22:56:32.838Z,100039.13
2022-09-28T22:59:01.659Z,100032.98
2022-09-28T23:01:30.933Z,100032.88
2022-09-28T23:03:59.641Z,100027.71
2022-09-28T23:06:31.099Z,100034.18
2022-09-28T23:09:00.514Z,100031.52
2022-09-28T23:11:29.829Z,100032.31
2022-09-28T23:14:00.111Z,100033.81
2022-09-28T23:16:30.294Z,100040.46
2022-09-28T23:18:59.080Z,100040.80
2022-09-28T23:21:28.479Z,100045.84
2022-09-28T23:24:03.709Z,100049.71
2022-09-28T23:26:37.080Z,100053.46
2022-09-28T23:29:06.276Z,100051.67
2022-09-28T23:31:35.001Z,100052.55
2022-09-28T23:34:06.720Z,100051.31
2022-09-28T23:36:35.523Z,100050.98
2022-09-28T23:39:04.790Z,100049.51
2022-09-28T23:41:33.438Z,100047.77
2022-09-28T23:44:02.647Z,100046.70
2022-09-28T23:46:32.125Z,100050.31
2022-09-28T23:49:00.764Z,100053.99
2022-09-28T23:51:29.426Z,100052.70
2022-09-28T23:53:57.969Z,100048.70
2022-09-28T23:56:26.567Z,100043.33
2022-09-28T23:58:55.205Z,100041.16
